• METAR

    LHBP Budapest Liszt Ferenc repülőtér METAR

    LHBP 222030Z VRB02KT CAVOK 22/17 Q1015 NOSIG

    QNH légnyomás:1015hpa
    Hőmérséklet/temperature: 22°C
    Harmatpont/Dew Point Temp: 17°C

    LHDC Debreceni repülőtér METAR

    LHDC 221945Z 08004KT CAVOK 24/18 Q1015 NOSIG

    QNH légnyomás:1015hpa
    Hőmérskélet/temperature: 24°C
    Harmatpont/Dew Point Temp: 18°C

    LHPR Győr-pér repülőtér METAR

    LHPR 221945Z AUTO 11004KT CAVOK 23/17 Q1014 RMK BLU

    QNH légnyomás:1014hpa
    Hőmérskélet/temperature: 23°C
    Harmatpont/Dew Point Temp: 17°C

    lhsm Sármellék repülőtér METAR

    LHSM 221945Z 07004KT 9999 FEW030 26/19 Q1014

    QNH légnyomás:1014hpa
    Hőmérskélet/temperature: 26°C
    Harmatpont/Dew Point Temp: 19°C

    lhpp Pécs-pogány repülőtér METAR

    LHPP 221645Z 08004KT CAVOK 31/17 Q1013

    QNH légnyomás:1013hpa
    Hőmérskélet/temperature: 31°C
    Harmatpont/Dew Point Temp: 17°C

    LHKE Kecskemét repülőtér METAR

    LHKE 222015Z 06002KT CAVOK 22/14 Q1014 NOSIG RMK BLU

    QNH légnyomás:1014hpa
    Hőmérskélet/temperature: 22°C
    Harmatpont/Dew Point Temp: 14°C

    LHSN Szolnok repülőtér METAR

    LHSN 222015Z 03004KT CAVOK 23/18 Q1014 NOSIG RMK BLU

    QNH légnyomás:1014hpa
    Hőmérskélet/temperature: 23°C
    Harmatpont/Dew Point Temp: 18°C

    LHUD szeged repülőtér METAR

    LHUD 221945Z 05007KT CAVOK 27/16 Q1014

    QNH légnyomás:1014hpa
    Hőmérskélet/temperature: 27°C
    Harmatpont/Dew Point Temp: 16°C

  • TÉRKÉPEK

    Felhőkép

    Széltérkép

    Hőtérkép

    radarkép

    map

    map

  • Műholdképek

    Magyarország műholdkép

    Europa műholdkép

    Europa szinoptikus térkép

  • ELTE ELŐREJELZÉS (2 NAP LHBP)

    2 napos légnyomás előrejelzés Budapest LHBP

    2 napos szél előrejelzés Budapest LHBP

    2 napos termik trigger előrejelzés Budapest LHBP

    2 napos felhőzet előrejelzés Budapest LHBP

    2 napos thermal index profile előrejelzés Budapest LHBP

    2 napos átlag emelés előrejelzés Budapest LHBP

    2 napos felhő alap előrejelzés Budapest LHBP

    2 napos hőmérséklet advekció előrejelzés Budapest LHBP

  • VILLÁMRADAR

  • ELŐREJELZÉS

  • WINDFINDER ELŐREJELZÉS

  • RIASZTÁS - VÉSZJELZÉS

Repülésmeteorológia, aktuális időjárási helyzet és előrejelzés

Repülésmeteorológia, várható időjárás jelentések, előrejelzések és riasztások. METAR, TAF adatok, aktuális időjárás helyzetek és térképek.

A meteorológia kialakulásában és fejlődésében kiemelt szerep jutott a repülésnek, illetve a repülés technikai fejlődésének. A repülésmeteorológia elsődlegesen a repülés biztonságát, másodlagosan a repülés gazdaságosságát hivatott szolgálni. Eleinte a katonai repülőgépeknek, később a polgári repülésnek, ma már a sportrepülő pilótáknak, és a mezőgazdasági pilótáknak is egyaránt szükségük van a naprakész meteorológiai információkra.

Repülésmeteorológia oldalunkon összegyűjtöttük a legnépszerűbb és legjobb időjárás oldalak hivatkozásait, hogy repülés előtt vagy akár közben minden fontos forrást egyszerűen és gyorsan megtalálj. Magyarország várható időjárása, légállapoti diagramok, termik előrejelzés, METAR adatok, vészjelzések és figyelmeztetések. A képernyő szélén közvetlenül pedig pozíciód aktuális időjárási paramétereit is megtalálod.

JOGI NYILATKOZAT

Az oldal használatával a látogató elfogadja az alábbi felhasználási feltételeket:

Az oldalon feltüntetett repülésmeteorológia információkat mindenki csak saját felelősségre használhatja. A feltüntetett külső forrásokból származó információk pontosságáért és tartalmáért, valamint az esetlegesen ebből adódó bármilyen káresemény kapcsán a FLYTIME.HU nem vállal felelősséget!